createdAt,value
2017-03-06T00:00:12.337Z,6.72
2017-03-06T00:01:12.762Z,6.8
2017-03-06T00:02:12.808Z,6.71
2017-03-06T00:03:12.445Z,6.8
2017-03-06T00:04:12.866Z,6.8
2017-03-06T00:05:12.893Z,6.77
2017-03-06T00:06:13.323Z,6.73
2017-03-06T00:07:12.966Z,6.81
2017-03-06T00:08:13.394Z,6.77
2017-03-06T00:09:13.064Z,6.73
2017-03-06T00:10:13.073Z,6.84
2017-03-06T00:11:13.502Z,6.77
2017-03-06T00:12:12.745Z,6.76
2017-03-06T00:13:12.770Z,6.81
2017-03-06T00:14:13.200Z,6.84
2017-03-06T00:15:12.838Z,6.8
2017-03-06T00:16:12.868Z,6.87
2017-03-06T00:17:13.306Z,6.91
2017-03-06T00:18:13.340Z,6.9
2017-03-06T00:19:13.403Z,6.86
2017-03-06T00:20:13.021Z,6.84
2017-03-06T00:21:13.447Z,6.87
2017-03-06T00:22:13.490Z,6.9
2017-03-06T00:23:13.512Z,6.87
2017-03-06T00:24:13.144Z,6.87
2017-03-06T00:25:13.176Z,6.89
2017-03-06T00:26:13.204Z,6.98
2017-03-06T00:27:14.023Z,6.95
2017-03-06T00:28:14.068Z,7.02
2017-03-06T00:29:13.324Z,6.94
2017-03-06T00:30:14.127Z,7.02
2017-03-06T00:31:13.768Z,7.07
2017-03-06T00:32:13.422Z,7.04
2017-03-06T00:33:13.837Z,6.95
2017-03-06T00:34:13.488Z,7.15
2017-03-06T00:35:13.902Z,7.04
2017-03-06T00:36:13.937Z,7.12
2017-03-06T00:37:13.983Z,7.16
2017-03-06T00:38:13.610Z,7.09
2017-03-06T00:39:13.668Z,7.07
2017-03-06T00:40:13.682Z,7.12
2017-03-06T00:41:13.714Z,6.98
2017-03-06T00:42:13.789Z,7.12
2017-03-06T00:43:13.792Z,6.97
2017-03-06T00:44:14.211Z,7.07
2017-03-06T00:45:14.252Z,7.05
2017-03-06T00:46:13.894Z,7.12
2017-03-06T00:47:14.320Z,7.04
2017-03-06T00:48:14.342Z,7.07
2017-03-06T00:49:14.001Z,7.12
2017-03-06T00:50:14.013Z,7.02
2017-03-06T00:51:14.061Z,7.08
2017-03-06T00:52:14.104Z,6.99
2017-03-06T00:53:14.907Z,7.05
2017-03-06T00:54:14.555Z,7.08
2017-03-06T00:55:14.573Z,7.01
2017-03-06T00:56:14.625Z,6.97
2017-03-06T00:57:14.646Z,6.87
2017-03-06T00:58:14.685Z,7.02
2017-03-06T00:59:14.326Z,6.95
2017-03-06T01:00:14.755Z,7.07
2017-03-06T01:01:14.784Z,6.87
2017-03-06T01:02:14.431Z,6.89
2017-03-06T01:03:15.242Z,6.91
2017-03-06T01:04:14.887Z,6.87
2017-03-06T01:05:14.919Z,6.94
2017-03-06T01:06:14.949Z,6.9
2017-03-06T01:07:14.986Z,6.91
2017-03-06T01:08:15.014Z,6.87
2017-03-06T01:09:15.064Z,6.9
2017-03-06T01:10:15.477Z,6.98
2017-03-06T01:11:15.132Z,6.9
2017-03-06T01:12:14.766Z,6.91
2017-03-06T01:13:15.577Z,6.89
2017-03-06T01:14:15.229Z,6.91
2017-03-06T01:15:14.856Z,7.02
2017-03-06T01:16:15.288Z,6.91
2017-03-06T01:17:14.926Z,6.95
2017-03-06T01:18:15.346Z,6.97
2017-03-06T01:19:15.780Z,6.87
2017-03-06T01:20:15.812Z,6.89
2017-03-06T01:21:15.108Z,7.04
2017-03-06T01:22:15.485Z,6.99
2017-03-06T01:23:15.514Z,6.89
2017-03-06T01:24:15.956Z,6.89
2017-03-06T01:25:15.602Z,6.91
2017-03-06T01:26:15.228Z,7.09
2017-03-06T01:27:15.655Z,7.02
2017-03-06T01:28:15.306Z,6.95
2017-03-06T01:29:16.124Z,6.97
2017-03-06T01:30:15.386Z,7.04
2017-03-06T01:31:15.786Z,7.01
2017-03-06T01:32:15.824Z,6.99
2017-03-06T01:33:15.860Z,6.95
2017-03-06T01:34:15.894Z,7.04
2017-03-06T01:35:15.927Z,7.01
2017-03-06T01:36:15.960Z,7.07
2017-03-06T01:37:15.990Z,7.04
2017-03-06T01:38:16.018Z,7.05
2017-03-06T01:39:16.067Z,7.04
2017-03-06T01:40:16.479Z,7.04
2017-03-06T01:41:16.518Z,7.02
2017-03-06T01:42:16.171Z,7.02
2017-03-06T01:43:15.797Z,7.02
2017-03-06T01:44:16.220Z,7.07
2017-03-06T01:45:15.866Z,7.07
2017-03-06T01:46:15.905Z,7.04
2017-03-06T01:47:15.948Z,7.01
2017-03-06T01:48:16.367Z,7.02
2017-03-06T01:49:16.408Z,6.99
2017-03-06T01:50:16.047Z,7.13
2017-03-06T01:51:16.084Z,7.07
2017-03-06T01:52:16.106Z,7.12
2017-03-06T01:53:16.135Z,7.09
2017-03-06T01:54:16.172Z,7.05
2017-03-06T01:55:16.595Z,7.12
2017-03-06T01:56:16.241Z,7.15
2017-03-06T01:57:16.672Z,7.12
2017-03-06T01:58:16.303Z,7.08
2017-03-06T01:59:16.730Z,7.2
2017-03-06T02:00:16.389Z,7.2
2017-03-06T02:01:16.421Z,7.17
2017-03-06T02:02:16.459Z,7.17
2017-03-06T02:03:16.495Z,7.2
2017-03-06T02:04:16.924Z,7.09
2017-03-06T02:05:16.931Z,7.16
2017-03-06T02:06:16.970Z,7.12
2017-03-06T02:07:17.002Z,7.01
2017-03-06T02:08:17.043Z,7.12
2017-03-06T02:09:17.065Z,7.12
2017-03-06T02:10:16.711Z,7.13
2017-03-06T02:11:17.138Z,7.05
2017-03-06T02:12:17.556Z,7.09
2017-03-06T02:13:17.603Z,7.12
2017-03-06T02:14:16.859Z,7.17
2017-03-06T02:15:17.285Z,7.19
2017-03-06T02:16:17.690Z,7.05
2017-03-06T02:17:17.333Z,7.02
2017-03-06T02:18:17.379Z,7.12
2017-03-06T02:19:17.021Z,7.12
2017-03-06T02:20:17.826Z,7.12
2017-03-06T02:21:17.095Z,7.13
2017-03-06T02:22:17.504Z,6.95
2017-03-06T02:23:17.153Z,6.91
2017-03-06T02:24:17.187Z,6.81
2017-03-06T02:25:17.213Z,6.72
2017-03-06T02:26:17.643Z,6.87
2017-03-06T02:27:17.295Z,6.87
2017-03-06T02:28:18.125Z,6.94
2017-03-06T02:29:17.759Z,6.89
2017-03-06T02:30:17.780Z,6.86
2017-03-06T02:31:17.422Z,6.91
2017-03-06T02:32:18.278Z,6.86
2017-03-06T02:33:17.882Z,6.91
2017-03-06T02:34:18.329Z,6.84
2017-03-06T02:35:17.958Z,6.84
2017-03-06T02:36:17.978Z,6.86
2017-03-06T02:37:18.035Z,6.8
2017-03-06T02:38:18.056Z,6.83
2017-03-06T02:39:17.701Z,6.84
2017-03-06T02:40:18.507Z,6.77
2017-03-06T02:41:17.786Z,6.87
2017-03-06T02:42:18.586Z,6.79
2017-03-06T02:43:17.841Z,6.87
2017-03-06T02:44:18.256Z,6.76
2017-03-06T02:45:17.902Z,6.81
2017-03-06T02:46:17.955Z,6.79
2017-03-06T02:47:17.990Z,6.83
2017-03-06T02:48:18.383Z,6.72
2017-03-06T02:49:18.429Z,6.89
2017-03-06T02:50:18.863Z,6.83
2017-03-06T02:51:18.502Z,6.79
2017-03-06T02:52:18.520Z,6.81
2017-03-06T02:53:18.184Z,6.95
2017-03-06T02:54:18.996Z,6.84
2017-03-06T02:55:18.625Z,6.9
2017-03-06T02:56:18.275Z,6.91
2017-03-06T02:57:19.075Z,6.94
2017-03-06T02:58:18.752Z,6.89
2017-03-06T02:59:18.768Z,6.87
2017-03-06T03:00:18.395Z,6.89
2017-03-06T03:01:18.431Z,6.97
2017-03-06T03:02:18.856Z,6.87
2017-03-06T03:03:18.510Z,6.98
2017-03-06T03:04:19.327Z,6.9
2017-03-06T03:05:18.958Z,6.91
2017-03-06T03:06:19.010Z,7.08
2017-03-06T03:07:19.019Z,6.95
2017-03-06T03:08:19.068Z,6.99
2017-03-06T03:09:18.931Z,7.08
2017-03-06T03:10:19.129Z,7.02
2017-03-06T03:11:19.170Z,7.09
2017-03-06T03:12:18.806Z,7.12
2017-03-06T03:13:19.634Z,7.07
2017-03-06T03:14:19.269Z,7.08
2017-03-06T03:15:19.292Z,7.05
2017-03-06T03:16:19.324Z,7.08
2017-03-06T03:17:18.988Z,7.19
2017-03-06T03:18:19.401Z,7.16
2017-03-06T03:19:19.030Z,7.09
2017-03-06T03:20:19.464Z,7.24
2017-03-06T03:21:19.494Z,7.17
2017-03-06T03:22:19.150Z,7.24
2017-03-06T03:23:19.172Z,7.16
2017-03-06T03:24:19.209Z,7.16
2017-03-06T03:25:19.628Z,7.15
2017-03-06T03:26:19.669Z,7.08
2017-03-06T03:27:19.305Z,7.24
2017-03-06T03:28:19.355Z,7.12
2017-03-06T03:29:19.765Z,7.24
2017-03-06T03:30:19.796Z,7.13
2017-03-06T03:31:19.831Z,7.16
2017-03-06T03:32:19.906Z,7.15
2017-03-06T03:33:19.901Z,7.15
2017-03-06T03:34:19.545Z,7.13
2017-03-06T03:35:20.383Z,7.23
2017-03-06T03:36:19.604Z,7.23
2017-03-06T03:37:20.034Z,7.15
2017-03-06T03:38:19.705Z,7.08
2017-03-06T03:39:20.122Z,7.2
2017-03-06T03:40:20.134Z,7.09
2017-03-06T03:41:20.175Z,7.17
2017-03-06T03:42:19.824Z,7.08
2017-03-06T03:43:19.873Z,7.23
2017-03-06T03:44:20.660Z,7.17
2017-03-06T03:45:20.305Z,7.15
2017-03-06T03:46:19.970Z,7.22
2017-03-06T03:47:20.009Z,7.13
2017-03-06T03:48:20.796Z,7.23
2017-03-06T03:49:20.845Z,7.23
2017-03-06T03:50:20.083Z,7.29
2017-03-06T03:51:20.119Z,7.13
2017-03-06T03:52:20.556Z,7.16
2017-03-06T03:53:20.974Z,7.24
2017-03-06T03:54:21.011Z,7.29
2017-03-06T03:55:20.644Z,7.19
2017-03-06T03:56:21.093Z,7.29
2017-03-06T03:57:20.320Z,7.19
2017-03-06T03:58:20.751Z,7.22
2017-03-06T03:59:20.789Z,7.24
2017-03-06T04:00:20.435Z,7.24
2017-03-06T04:01:20.459Z,7.32
2017-03-06T04:02:21.289Z,7.27
2017-03-06T04:03:20.919Z,7.29
2017-03-06T04:04:20.572Z,7.31
2017-03-06T04:05:20.991Z,7.27
2017-03-06T04:06:21.021Z,7.19
2017-03-06T04:07:21.448Z,7.23
2017-03-06T04:08:21.081Z,7.32
2017-03-06T04:09:21.132Z,7.31
2017-03-06T04:10:21.166Z,7.2
2017-03-06T04:11:21.184Z,7.38
2017-03-06T04:12:20.823Z,7.29
2017-03-06T04:13:20.861Z,7.37
2017-03-06T04:14:21.282Z,7.29
2017-03-06T04:15:21.327Z,7.24
2017-03-06T04:16:21.349Z,7.23
2017-03-06T04:17:21.384Z,7.19
2017-03-06T04:18:21.039Z,7.27
2017-03-06T04:19:21.867Z,7.16
2017-03-06T04:20:21.916Z,7.27
2017-03-06T04:21:21.131Z,7.2
2017-03-06T04:22:21.173Z,7.32
2017-03-06T04:23:21.999Z,7.24
2017-03-06T04:24:21.625Z,7.35
2017-03-06T04:25:22.053Z,7.23
2017-03-06T04:26:21.716Z,7.23
2017-03-06T04:27:21.342Z,7.26
2017-03-06T04:28:21.768Z,7.31
2017-03-06T04:29:21.401Z,7.27
2017-03-06T04:30:22.229Z,7.29
2017-03-06T04:31:21.466Z,7.35
2017-03-06T04:32:21.890Z,7.31
2017-03-06T04:33:21.927Z,7.34
2017-03-06T04:34:21.575Z,7.34
2017-03-06T04:35:21.611Z,7.41
2017-03-06T04:36:22.035Z,7.35
2017-03-06T04:37:22.066Z,7.41
2017-03-06T04:38:21.711Z,7.44
2017-03-06T04:39:21.740Z,7.4
2017-03-06T04:40:22.177Z,7.49
2017-03-06T04:41:21.806Z,7.47
2017-03-06T04:42:21.852Z,7.49
2017-03-06T04:43:22.274Z,7.52
2017-03-06T04:44:21.924Z,7.49
2017-03-06T04:45:21.944Z,7.52
2017-03-06T04:46:22.370Z,7.56
2017-03-06T04:47:22.407Z,7.58
2017-03-06T04:48:22.471Z,7.6
2017-03-06T04:49:22.093Z,7.63
2017-03-06T04:50:22.110Z,7.63
2017-03-06T04:51:22.148Z,7.52
2017-03-06T04:52:22.582Z,7.59
2017-03-06T04:53:22.222Z,7.56
2017-03-06T04:54:22.636Z,7.66
2017-03-06T04:55:22.677Z,7.6
2017-03-06T04:56:23.103Z,7.55
2017-03-06T04:57:22.755Z,7.59
2017-03-06T04:58:22.395Z,7.53
2017-03-06T04:59:22.424Z,7.42
2017-03-06T05:00:22.854Z,7.5
2017-03-06T05:01:22.493Z,7.49
2017-03-06T05:02:22.919Z,7.38
2017-03-06T05:03:22.551Z,7.47
2017-03-06T05:04:22.983Z,7.52
2017-03-06T05:05:22.633Z,7.52
2017-03-06T05:06:23.067Z,7.47
2017-03-06T05:07:23.097Z,7.4
2017-03-06T05:08:23.118Z,7.44
2017-03-06T05:09:23.167Z,7.37
2017-03-06T05:10:23.201Z,7.4
2017-03-06T05:11:23.231Z,7.35
2017-03-06T05:12:22.888Z,7.42
2017-03-06T05:13:22.898Z,7.4
2017-03-06T05:14:22.958Z,7.35
2017-03-06T05:15:22.961Z,7.38
2017-03-06T05:16:22.998Z,7.42
2017-03-06T05:17:23.431Z,7.31
2017-03-06T05:18:23.072Z,7.26
2017-03-06T05:19:23.496Z,7.31
2017-03-06T05:20:23.142Z,7.19
2017-03-06T05:21:23.170Z,7.23
2017-03-06T05:22:23.213Z,7.12
2017-03-06T05:23:23.622Z,7.2
2017-03-06T05:24:24.069Z,7.19
2017-03-06T05:25:23.298Z,7.24
2017-03-06T05:26:23.342Z,7.2
2017-03-06T05:27:24.159Z,7.16
2017-03-06T05:28:23.407Z,7.19
2017-03-06T05:29:24.234Z,7.09
2017-03-06T05:30:23.471Z,7.17
2017-03-06T05:31:24.304Z,7.22
2017-03-06T05:32:23.928Z,7.13
2017-03-06T05:33:23.568Z,7.19
2017-03-06T05:34:24.399Z,7.15
2017-03-06T05:35:24.030Z,7.22
2017-03-06T05:36:24.076Z,7.24
2017-03-06T05:37:24.107Z,7.12
2017-03-06T05:38:23.736Z,7.27
2017-03-06T05:39:24.168Z,7.19
2017-03-06T05:40:24.206Z,7.22
2017-03-06T05:41:24.635Z,7.24
2017-03-06T05:42:24.270Z,7.22
2017-03-06T05:43:24.305Z,7.19
2017-03-06T05:44:24.335Z,7.32
2017-03-06T05:45:24.021Z,7.24
2017-03-06T05:46:24.008Z,7.29
2017-03-06T05:47:24.432Z,7.32
2017-03-06T05:48:24.469Z,7.29
2017-03-06T05:49:24.512Z,7.29
2017-03-06T05:50:24.936Z,7.4
2017-03-06T05:51:24.978Z,7.38
2017-03-06T05:52:24.614Z,7.38
2017-03-06T05:53:24.640Z,7.4
2017-03-06T05:54:25.072Z,7.38
2017-03-06T05:55:24.327Z,7.38
2017-03-06T05:56:24.739Z,7.41
2017-03-06T05:57:24.775Z,7.41
2017-03-06T05:58:24.422Z,7.44
2017-03-06T05:59:25.256Z,7.45
2017-03-06T06:00:24.505Z,7.45
2017-03-06T06:01:25.316Z,7.47
2017-03-06T06:02:24.563Z,7.47
2017-03-06T06:03:24.980Z,7.62
2017-03-06T06:04:25.070Z,7.58
2017-03-06T06:05:25.434Z,7.56
2017-03-06T06:06:25.102Z,7.53
2017-03-06T06:07:24.724Z,7.55
2017-03-06T06:08:24.761Z,7.66
2017-03-06T06:09:24.796Z,7.59
2017-03-06T06:10:25.223Z,7.66
2017-03-06T06:11:24.882Z,7.67
2017-03-06T06:12:25.675Z,7.62
2017-03-06T06:13:24.931Z,7.6
2017-03-06T06:14:24.980Z,7.71
2017-03-06T06:15:24.996Z,7.78
2017-03-06T06:16:25.434Z,7.71
2017-03-06T06:17:25.481Z,7.74
2017-03-06T06:18:25.104Z,7.69
2017-03-06T06:19:25.531Z,7.87
2017-03-06T06:20:25.560Z,7.89
2017-03-06T06:21:25.604Z,7.89
2017-03-06T06:22:25.232Z,7.81
2017-03-06T06:23:25.673Z,7.85
2017-03-06T06:24:25.303Z,8
2017-03-06T06:25:25.341Z,7.94
2017-03-06T06:26:26.167Z,7.94
2017-03-06T06:27:25.417Z,7.96
2017-03-06T06:28:26.272Z,7.93
2017-03-06T06:29:25.871Z,7.96
2017-03-06T06:30:26.296Z,7.94
2017-03-06T06:31:25.937Z,7.96
2017-03-06T06:32:25.974Z,8.02
2017-03-06T06:33:25.612Z,8.03
2017-03-06T06:34:26.043Z,7.99
2017-03-06T06:35:26.077Z,8
2017-03-06T06:36:26.132Z,8.02
2017-03-06T06:37:26.547Z,7.93
2017-03-06T06:38:26.175Z,7.99
2017-03-06T06:39:26.617Z,7.92
2017-03-06T06:40:25.858Z,8.03
2017-03-06T06:41:25.903Z,8.02
2017-03-06T06:42:26.330Z,7.96
2017-03-06T06:43:26.739Z,7.96
2017-03-06T06:44:25.988Z,7.93
2017-03-06T06:45:26.430Z,7.93
2017-03-06T06:46:26.857Z,8
2017-03-06T06:47:26.721Z,8.08
2017-03-06T06:48:26.526Z,8.1
2017-03-06T06:49:26.566Z,8.04
2017-03-06T06:50:27.483Z,8.07
2017-03-06T06:51:26.233Z,7.94
2017-03-06T06:52:26.679Z,7.94
2017-03-06T06:53:26.903Z,8.04
2017-03-06T06:54:26.738Z,8.04
2017-03-06T06:55:26.365Z,8.03
2017-03-06T06:56:26.402Z,7.97
2017-03-06T06:57:27.226Z,7.99
2017-03-06T06:58:26.472Z,8.14
2017-03-06T06:59:26.549Z,8.1
2017-03-06T07:00:26.932Z,7.97
2017-03-06T07:01:26.962Z,8.04
2017-03-06T07:02:26.611Z,8.04
2017-03-06T07:03:27.041Z,8.02
2017-03-06T07:04:26.698Z,8
2017-03-06T07:05:27.520Z,8.03
2017-03-06T07:06:27.535Z,8.07
2017-03-06T07:07:27.184Z,8.07
2017-03-06T07:08:26.819Z,8.11
2017-03-06T07:09:26.847Z,7.99
2017-03-06T07:10:27.289Z,8.11
2017-03-06T07:11:27.308Z,8.04
2017-03-06T07:12:27.347Z,8
2017-03-06T07:13:26.989Z,7.97
2017-03-06T07:14:27.451Z,7.96
2017-03-06T07:15:27.842Z,7.93
2017-03-06T07:16:27.483Z,7.94
2017-03-06T07:17:27.135Z,7.9
2017-03-06T07:18:27.170Z,7.87
2017-03-06T07:19:27.582Z,7.97
2017-03-06T07:20:28.007Z,7.93
2017-03-06T07:21:28.026Z,7.92
2017-03-06T07:22:28.085Z,7.94
2017-03-06T07:23:27.357Z,7.9
2017-03-06T07:24:28.144Z,7.81
2017-03-06T07:25:27.816Z,7.82
2017-03-06T07:26:27.828Z,7.81
2017-03-06T07:27:28.284Z,7.89
2017-03-06T07:28:27.900Z,7.74
2017-03-06T07:29:27.939Z,7.81
2017-03-06T07:30:27.572Z,7.67
2017-03-06T07:31:27.602Z,7.66
2017-03-06T07:32:28.431Z,7.71
2017-03-06T07:33:27.688Z,7.75
2017-03-06T07:34:28.098Z,7.79
2017-03-06T07:35:27.750Z,7.79
2017-03-06T07:36:27.776Z,7.81
2017-03-06T07:37:28.599Z,7.77
2017-03-06T07:38:27.846Z,7.84
2017-03-06T07:39:27.892Z,7.79
2017-03-06T07:40:28.319Z,7.82
2017-03-06T07:41:27.949Z,7.81
2017-03-06T07:42:28.405Z,7.77
2017-03-06T07:43:28.420Z,7.74
2017-03-06T07:44:28.462Z,7.67
2017-03-06T07:45:28.483Z,7.58
2017-03-06T07:46:28.510Z,7.52
2017-03-06T07:47:28.177Z,7.45
2017-03-06T07:48:28.185Z,7.41
2017-03-06T07:49:28.622Z,7.44
2017-03-06T07:50:28.267Z,7.4
2017-03-06T07:51:28.293Z,7.29
2017-03-06T07:52:28.329Z,7.22
2017-03-06T07:53:28.751Z,7.19
2017-03-06T07:54:29.188Z,7.05
2017-03-06T07:55:29.211Z,7.15
2017-03-06T07:56:29.251Z,7.23
2017-03-06T07:57:29.282Z,7.12
2017-03-06T07:58:28.953Z,7.12
2017-03-06T07:59:28.569Z,7.07
2017-03-06T08:00:29.005Z,7.05
2017-03-06T08:01:29.424Z,7.05
2017-03-06T08:02:28.680Z,7.09
2017-03-06T08:03:29.170Z,6.98
2017-03-06T08:04:28.746Z,7.12
2017-03-06T08:05:28.781Z,7.04
2017-03-06T08:06:29.201Z,7.07
2017-03-06T08:07:29.620Z,7.07
2017-03-06T08:08:28.876Z,7.08
2017-03-06T08:09:29.293Z,7.09
2017-03-06T08:10:29.745Z,7.08
2017-03-06T08:11:28.979Z,6.91
2017-03-06T08:12:29.407Z,6.99
2017-03-06T08:13:29.432Z,7.02
2017-03-06T08:14:29.856Z,6.95
2017-03-06T08:15:29.113Z,6.89
2017-03-06T08:16:29.143Z,6.91
2017-03-06T08:17:29.181Z,6.87
2017-03-06T08:18:29.605Z,6.9
2017-03-06T08:19:30.034Z,6.98
2017-03-06T08:20:29.282Z,6.94
2017-03-06T08:21:29.703Z,7.08
2017-03-06T08:22:30.003Z,7.08
2017-03-06T08:23:29.422Z,7.07
2017-03-06T08:24:29.805Z,7.02
2017-03-06T08:25:29.476Z,7.04
2017-03-06T08:26:29.893Z,7.05
2017-03-06T08:27:29.524Z,7.07
2017-03-06T08:28:30.343Z,7.02
2017-03-06T08:29:29.978Z,7.01
2017-03-06T08:30:29.635Z,7.04
2017-03-06T08:31:30.464Z,7.01
2017-03-06T08:32:30.103Z,7.17
2017-03-06T08:33:29.730Z,7.04
2017-03-06T08:34:30.148Z,7.13
2017-03-06T08:35:29.790Z,7.08
2017-03-06T08:36:30.221Z,7.12
2017-03-06T08:37:29.876Z,7.02
2017-03-06T08:38:29.907Z,7.13
2017-03-06T08:39:30.326Z,7.05
2017-03-06T08:40:29.967Z,7.13
2017-03-06T08:41:29.997Z,7.01
2017-03-06T08:42:30.419Z,7.09
2017-03-06T08:43:30.457Z,7.13
2017-03-06T08:44:30.098Z,7.15
2017-03-06T08:45:30.526Z,7.26
2017-03-06T08:46:30.180Z,7.22
2017-03-06T08:47:30.332Z,7.12
2017-03-06T08:48:30.637Z,7.13
2017-03-06T08:49:30.266Z,7.17
2017-03-06T08:50:30.706Z,7.13
2017-03-06T08:51:31.137Z,7.19
2017-03-06T08:52:30.792Z,7.23
2017-03-06T08:53:30.410Z,7.29
2017-03-06T08:54:30.439Z,7.38
2017-03-06T08:55:30.860Z,7.29
2017-03-06T08:56:30.516Z,7.31
2017-03-06T08:57:30.549Z,7.31
2017-03-06T08:58:31.019Z,7.42
2017-03-06T08:59:31.014Z,7.37
2017-03-06T09:00:30.655Z,7.41
2017-03-06T09:01:31.067Z,7.41
2017-03-06T09:02:31.115Z,7.4
2017-03-06T09:03:30.759Z,7.49
2017-03-06T09:04:31.172Z,7.49
2017-03-06T09:05:30.848Z,7.42
2017-03-06T09:06:31.240Z,7.52
2017-03-06T09:07:31.717Z,7.44
2017-03-06T09:08:31.701Z,7.5
2017-03-06T09:09:31.744Z,7.49
2017-03-06T09:10:30.999Z,7.49
2017-03-06T09:11:31.415Z,7.53
2017-03-06T09:12:31.053Z,7.5
2017-03-06T09:13:31.087Z,7.59
2017-03-06T09:14:31.522Z,7.58
2017-03-06T09:15:31.155Z,7.59
2017-03-06T09:16:31.212Z,7.75
2017-03-06T09:17:31.619Z,7.72
2017-03-06T09:18:31.659Z,7.72
2017-03-06T09:19:31.289Z,7.72
2017-03-06T09:20:31.373Z,7.67
2017-03-06T09:21:31.371Z,7.58
2017-03-06T09:22:31.873Z,7.6
2017-03-06T09:23:31.449Z,7.55
2017-03-06T09:24:32.260Z,7.6
2017-03-06T09:25:34.790Z,7.58
2017-03-06T09:26:32.055Z,7.6
2017-03-06T09:27:35.121Z,7.53
2017-03-06T09:28:32.011Z,7.47
2017-03-06T09:29:34.059Z,7.44
2017-03-06T09:30:31.681Z,7.47
2017-03-06T09:31:32.531Z,7.55
2017-03-06T09:32:31.744Z,7.5
2017-03-06T09:33:32.179Z,7.52
2017-03-06T09:34:32.208Z,7.53
2017-03-06T09:35:31.890Z,7.6
2017-03-06T09:36:32.272Z,7.6
2017-03-06T09:37:32.392Z,7.56
2017-03-06T09:38:32.469Z,7.66
2017-03-06T09:39:32.003Z,7.56
2017-03-06T09:40:32.024Z,7.53
2017-03-06T09:41:32.078Z,7.69
2017-03-06T09:42:34.474Z,7.6
2017-03-06T09:43:32.529Z,7.69
2017-03-06T09:44:32.557Z,7.72
2017-03-06T09:45:32.201Z,7.72
2017-03-06T09:46:32.638Z,7.75
2017-03-06T09:47:32.277Z,7.92
2017-03-06T09:48:32.697Z,7.85
2017-03-06T09:49:32.739Z,7.85
2017-03-06T09:50:32.411Z,7.97
2017-03-06T09:51:32.814Z,7.96
2017-03-06T09:52:32.848Z,8
2017-03-06T09:53:32.880Z,7.99
2017-03-06T09:54:32.899Z,8.02
2017-03-06T09:55:33.841Z,8.17
2017-03-06T09:56:32.585Z,8.22
2017-03-06T09:57:33.012Z,8.33
2017-03-06T09:58:33.435Z,8.47
2017-03-06T09:59:32.694Z,8.51
2017-03-06T10:00:33.510Z,8.54
2017-03-06T10:01:32.760Z,8.54
2017-03-06T10:02:32.796Z,8.62
2017-03-06T10:03:33.218Z,8.6
2017-03-06T10:04:33.650Z,8.58
2017-03-06T10:05:33.753Z,8.66
2017-03-06T10:06:32.948Z,8.71
2017-03-06T10:07:32.980Z,8.69
2017-03-06T10:08:33.949Z,8.55
2017-03-06T10:09:33.425Z,8.72
2017-03-06T10:10:33.075Z,8.57
2017-03-06T10:11:33.257Z,8.62
2017-03-06T10:12:33.623Z,8.58
2017-03-06T10:13:33.565Z,8.55
2017-03-06T10:14:33.609Z,8.47
2017-03-06T10:15:33.259Z,8.54
2017-03-06T10:16:33.342Z,8.42
2017-03-06T10:17:33.709Z,8.4
2017-03-06T10:18:33.350Z,8.39
2017-03-06T10:19:34.175Z,8.55
2017-03-06T10:20:33.432Z,8.58
2017-03-06T10:21:33.473Z,8.71
2017-03-06T10:22:33.935Z,8.71
2017-03-06T10:23:33.926Z,8.72
2017-03-06T10:24:33.962Z,8.76
2017-03-06T10:25:34.036Z,8.83
2017-03-06T10:26:33.643Z,8.81
2017-03-06T10:27:34.085Z,8.88
2017-03-06T10:28:34.111Z,8.87
2017-03-06T10:29:34.148Z,8.87
2017-03-06T10:30:34.178Z,8.87
2017-03-06T10:31:34.272Z,8.84
2017-03-06T10:32:34.237Z,8.86
2017-03-06T10:33:34.694Z,8.83
2017-03-06T10:34:33.941Z,8.76
2017-03-06T10:35:34.750Z,8.86
2017-03-06T10:36:34.422Z,8.87
2017-03-06T10:37:34.090Z,8.91
2017-03-06T10:38:34.852Z,8.88
2017-03-06T10:39:34.884Z,8.97
2017-03-06T10:40:34.556Z,8.99
2017-03-06T10:41:34.182Z,8.96
2017-03-06T10:42:34.594Z,9.02
2017-03-06T10:43:34.651Z,9.06
2017-03-06T10:44:34.659Z,9.09
2017-03-06T10:45:34.705Z,8.99
2017-03-06T10:46:34.752Z,9.02
2017-03-06T10:47:34.794Z,9.06
2017-03-06T10:48:34.817Z,9.09
2017-03-06T10:49:34.851Z,9.01
2017-03-06T10:50:34.900Z,9.12
2017-03-06T10:51:35.304Z,9.21
2017-03-06T10:52:34.551Z,9.18
2017-03-06T10:53:35.032Z,9.24
2017-03-06T10:54:35.014Z,9.27
2017-03-06T10:55:35.458Z,9.16
2017-03-06T10:56:35.093Z,9.2
2017-03-06T10:57:35.379Z,9.15
2017-03-06T10:58:35.578Z,9.28
2017-03-06T10:59:35.205Z,9.28
2017-03-06T11:00:34.856Z,9.24
2017-03-06T11:01:34.882Z,9.31
2017-03-06T11:02:34.913Z,9.35
2017-03-06T11:03:34.957Z,9.43
2017-03-06T11:04:35.397Z,9.4
2017-03-06T11:05:35.017Z,9.49
2017-03-06T11:06:35.463Z,9.46
2017-03-06T11:07:35.089Z,9.56
2017-03-06T11:08:35.530Z,9.49
2017-03-06T11:09:35.555Z,9.53
2017-03-06T11:10:35.201Z,9.46
2017-03-06T11:11:35.626Z,9.56
2017-03-06T11:12:35.656Z,9.56
2017-03-06T11:13:35.720Z,9.61
2017-03-06T11:14:35.773Z,9.53
2017-03-06T11:15:35.794Z,9.57
2017-03-06T11:16:35.804Z,9.6
2017-03-06T11:17:35.474Z,9.43
2017-03-06T11:18:35.876Z,9.43
2017-03-06T11:19:35.530Z,9.46
2017-03-06T11:20:35.952Z,9.39
2017-03-06T11:21:35.994Z,9.38
2017-03-06T11:22:36.622Z,9.31
2017-03-06T11:23:36.076Z,9.39
2017-03-06T11:24:36.110Z,9.42
2017-03-06T11:25:36.126Z,9.53
2017-03-06T11:26:36.176Z,9.53
2017-03-06T11:27:36.607Z,9.53
2017-03-06T11:28:36.344Z,9.53
2017-03-06T11:29:36.309Z,9.53
2017-03-06T11:30:35.937Z,9.57
2017-03-06T11:31:35.953Z,9.71
2017-03-06T11:32:35.981Z,9.75
2017-03-06T11:33:36.042Z,9.64
2017-03-06T11:34:36.059Z,9.67
2017-03-06T11:35:36.882Z,9.64
2017-03-06T11:36:36.133Z,9.57
2017-03-06T11:37:38.389Z,9.49
2017-03-06T11:38:36.213Z,9.52
2017-03-06T11:39:36.252Z,9.57
2017-03-06T11:40:36.673Z,9.56
2017-03-06T11:41:36.708Z,9.52
2017-03-06T11:42:36.380Z,9.57
2017-03-06T11:43:36.386Z,9.58
2017-03-06T11:44:37.208Z,9.61
2017-03-06T11:45:37.250Z,9.56
2017-03-06T11:46:36.883Z,9.57
2017-03-06T11:47:36.928Z,9.56
2017-03-06T11:48:36.957Z,9.53
2017-03-06T11:49:37.025Z,9.53
2017-03-06T11:50:37.072Z,9.6
2017-03-06T11:51:36.679Z,9.61
2017-03-06T11:52:36.726Z,9.71
2017-03-06T11:53:36.739Z,9.83
2017-03-06T11:54:37.168Z,9.99
2017-03-06T11:55:37.601Z,10
2017-03-06T11:56:37.258Z,10.07
2017-03-06T11:57:36.878Z,10.18
2017-03-06T11:58:36.917Z,10.17
2017-03-06T11:59:36.978Z,10.28
2017-03-06T12:00:37.381Z,10.37
2017-03-06T12:01:37.043Z,10.62
2017-03-06T12:02:37.859Z,10.6
2017-03-06T12:03:37.100Z,10.65
2017-03-06T12:04:37.925Z,10.78
2017-03-06T12:05:37.570Z,10.8
2017-03-06T12:06:37.216Z,10.76
2017-03-06T12:07:37.648Z,10.81
2017-03-06T12:08:37.686Z,10.94
2017-03-06T12:09:37.714Z,10.88
2017-03-06T12:10:37.759Z,10.89
2017-03-06T12:11:37.784Z,10.94
2017-03-06T12:12:37.831Z,10.95
2017-03-06T12:13:37.472Z,10.99
2017-03-06T12:14:37.902Z,10.86
2017-03-06T12:15:37.571Z,10.89
2017-03-06T12:16:37.987Z,10.99
2017-03-06T12:17:37.734Z,10.86
2017-03-06T12:18:38.051Z,11.01
2017-03-06T12:19:38.140Z,10.83
2017-03-06T12:20:37.741Z,10.94
2017-03-06T12:21:38.346Z,10.92
2017-03-06T12:22:38.200Z,10.89
2017-03-06T12:23:38.334Z,10.77
2017-03-06T12:24:38.284Z,10.92
2017-03-06T12:25:38.373Z,10.89
2017-03-06T12:26:37.964Z,10.86
2017-03-06T12:27:38.394Z,10.94
2017-03-06T12:28:38.413Z,10.89
2017-03-06T12:29:38.586Z,10.91
2017-03-06T12:30:38.098Z,10.98
2017-03-06T12:31:38.565Z,10.95
2017-03-06T12:32:38.575Z,10.88
2017-03-06T12:33:38.618Z,10.95
2017-03-06T12:34:38.652Z,10.81
2017-03-06T12:35:38.602Z,10.84
2017-03-06T12:36:38.325Z,10.78
2017-03-06T12:37:39.161Z,10.91
2017-03-06T12:38:38.806Z,10.94
2017-03-06T12:39:38.488Z,10.83
2017-03-06T12:40:38.987Z,10.86
2017-03-06T12:41:39.295Z,10.88
2017-03-06T12:42:38.542Z,10.8
2017-03-06T12:43:38.979Z,10.92
2017-03-06T12:44:38.626Z,10.88
2017-03-06T12:45:39.144Z,10.92
2017-03-06T12:46:38.689Z,10.92
2017-03-06T12:47:39.131Z,10.88
2017-03-06T12:48:39.186Z,11.02
2017-03-06T12:49:39.323Z,11.06
2017-03-06T12:50:38.844Z,11.02
2017-03-06T12:51:39.298Z,11.02
2017-03-06T12:52:38.912Z,11.02
2017-03-06T12:53:39.351Z,11.06
2017-03-06T12:54:39.879Z,11.03
2017-03-06T12:55:39.430Z,11.07
2017-03-06T12:56:39.838Z,10.99
2017-03-06T12:57:39.103Z,11.02
2017-03-06T12:58:39.139Z,10.95
2017-03-06T12:59:39.193Z,10.95
2017-03-06T13:00:39.604Z,10.98
2017-03-06T13:01:39.243Z,10.98
2017-03-06T13:02:39.300Z,10.88
2017-03-06T13:03:39.344Z,10.96
2017-03-06T13:04:40.139Z,10.88
2017-03-06T13:05:40.181Z,11.01
2017-03-06T13:06:39.446Z,10.99
2017-03-06T13:07:39.883Z,10.94
2017-03-06T13:08:39.905Z,10.96
2017-03-06T13:09:39.937Z,10.96
2017-03-06T13:10:39.596Z,11.03
2017-03-06T13:11:40.006Z,11.02
2017-03-06T13:12:39.641Z,11.06
2017-03-06T13:13:40.075Z,11.06
2017-03-06T13:14:39.721Z,11.13
2017-03-06T13:15:40.551Z,11.09
2017-03-06T13:16:40.184Z,11.17
2017-03-06T13:17:39.845Z,11.17
2017-03-06T13:18:39.869Z,11.16